sensor_id;sensor_type;location;lat;lon;timestamp;P1;durP1;ratioP1;P2;durP2;ratioP2
5010;SDS011;2524;54.364;10.072;2023-02-01T00:01:41;18.07;;;4.27;;
5010;SDS011;2524;54.364;10.072;2023-02-01T00:04:07;12.30;;;3.87;;
5010;SDS011;2524;54.364;10.072;2023-02-01T00:06:32;13.80;;;3.50;;
5010;SDS011;2524;54.364;10.072;2023-02-01T00:08:58;11.47;;;3.57;;
5010;SDS011;2524;54.364;10.072;2023-02-01T00:11:24;17.90;;;3.47;;
5010;SDS011;2524;54.364;10.072;2023-02-01T00:13:50;17.03;;;3.40;;
5010;SDS011;2524;54.364;10.072;2023-02-01T00:16:17;15.47;;;3.53;;
5010;SDS011;2524;54.364;10.072;2023-02-01T00:18:45;18.60;;;3.93;;
5010;SDS011;2524;54.364;10.072;2023-02-01T00:21:12;11.33;;;3.07;;
5010;SDS011;2524;54.364;10.072;2023-02-01T00:23:39;16.03;;;3.80;;
5010;SDS011;2524;54.364;10.072;2023-02-01T00:26:05;25.17;;;4.50;;
5010;SDS011;2524;54.364;10.072;2023-02-01T00:28:33;15.00;;;4.13;;
5010;SDS011;2524;54.364;10.072;2023-02-01T00:30:59;17.57;;;4.57;;
5010;SDS011;2524;54.364;10.072;2023-02-01T00:33:26;21.20;;;4.63;;
5010;SDS011;2524;54.364;10.072;2023-02-01T00:35:56;28.70;;;5.30;;
5010;SDS011;2524;54.364;10.072;2023-02-01T00:38:23;12.03;;;3.80;;
5010;SDS011;2524;54.364;10.072;2023-02-01T00:40:50;23.43;;;5.60;;
5010;SDS011;2524;54.364;10.072;2023-02-01T00:43:15;24.07;;;6.83;;
5010;SDS011;2524;54.364;10.072;2023-02-01T00:45:41;19.97;;;5.03;;
5010;SDS011;2524;54.364;10.072;2023-02-01T00:48:06;21.93;;;5.70;;
5010;SDS011;2524;54.364;10.072;2023-02-01T00:50:32;33.20;;;5.47;;
5010;SDS011;2524;54.364;10.072;2023-02-01T00:52:57;15.47;;;3.97;;
5010;SDS011;2524;54.364;10.072;2023-02-01T00:55:23;17.00;;;4.17;;
5010;SDS011;2524;54.364;10.072;2023-02-01T00:57:49;14.33;;;3.83;;
5010;SDS011;2524;54.364;10.072;2023-02-01T01:00:14;20.87;;;5.03;;
5010;SDS011;2524;54.364;10.072;2023-02-01T01:02:41;19.70;;;4.93;;
5010;SDS011;2524;54.364;10.072;2023-02-01T01:05:06;19.37;;;4.57;;
5010;SDS011;2524;54.364;10.072;2023-02-01T01:07:32;17.33;;;4.57;;
5010;SDS011;2524;54.364;10.072;2023-02-01T01:09:58;28.67;;;5.63;;
5010;SDS011;2524;54.364;10.072;2023-02-01T01:12:23;22.43;;;4.67;;
5010;SDS011;2524;54.364;10.072;2023-02-01T01:14:49;16.43;;;4.00;;
5010;SDS011;2524;54.364;10.072;2023-02-01T01:17:15;32.93;;;6.27;;
5010;SDS011;2524;54.364;10.072;2023-02-01T01:19:41;26.13;;;5.20;;
5010;SDS011;2524;54.364;10.072;2023-02-01T01:22:07;29.93;;;6.27;;
5010;SDS011;2524;54.364;10.072;2023-02-01T01:24:32;16.63;;;4.73;;
5010;SDS011;2524;54.364;10.072;2023-02-01T01:26:58;11.93;;;3.77;;
5010;SDS011;2524;54.364;10.072;2023-02-01T01:29:23;19.97;;;4.73;;
5010;SDS011;2524;54.364;10.072;2023-02-01T01:31:49;36.47;;;7.00;;
5010;SDS011;2524;54.364;10.072;2023-02-01T01:34:15;23.53;;;4.17;;
5010;SDS011;2524;54.364;10.072;2023-02-01T01:36:40;15.23;;;4.40;;
5010;SDS011;2524;54.364;10.072;2023-02-01T01:39:06;18.77;;;4.00;;
5010;SDS011;2524;54.364;10.072;2023-02-01T01:41:32;15.70;;;4.60;;
5010;SDS011;2524;54.364;10.072;2023-02-01T01:43:59;17.83;;;4.80;;
5010;SDS011;2524;54.364;10.072;2023-02-01T01:46:34;16.57;;;4.57;;
5010;SDS011;2524;54.364;10.072;2023-02-01T01:49:07;16.10;;;4.50;;
5010;SDS011;2524;54.364;10.072;2023-02-01T01:51:41;15.97;;;5.17;;
5010;SDS011;2524;54.364;10.072;2023-02-01T01:54:32;20.60;;;4.93;;
5010;SDS011;2524;54.364;10.072;2023-02-01T01:57:04;28.60;;;6.13;;
5010;SDS011;2524;54.364;10.072;2023-02-01T01:59:37;22.23;;;5.50;;
5010;SDS011;2524;54.364;10.072;2023-02-01T02:02:04;21.63;;;5.23;;
5010;SDS011;2524;54.364;10.072;2023-02-01T02:04:31;25.93;;;5.70;;
5010;SDS011;2524;54.364;10.072;2023-02-01T02:07:02;24.07;;;5.03;;
5010;SDS011;2524;54.364;10.072;2023-02-01T02:09:33;20.90;;;4.90;;
5010;SDS011;2524;54.364;10.072;2023-02-01T02:11:58;24.20;;;5.57;;
5010;SDS011;2524;54.364;10.072;2023-02-01T02:14:24;28.03;;;6.10;;
5010;SDS011;2524;54.364;10.072;2023-02-01T02:17:07;19.73;;;5.00;;
5010;SDS011;2524;54.364;10.072;2023-02-01T02:33:57;18.27;;;4.47;;
5010;SDS011;2524;54.364;10.072;2023-02-01T02:39:06;27.20;;;5.70;;
5010;SDS011;2524;54.364;10.072;2023-02-01T02:48:02;13.67;;;4.30;;
5010;SDS011;2524;54.364;10.072;2023-02-01T02:50:58;24.83;;;4.63;;
5010;SDS011;2524;54.364;10.072;2023-02-01T02:53:54;17.40;;;4.83;;
5010;SDS011;2524;54.364;10.072;2023-02-01T02:56:45;25.93;;;5.30;;
5010;SDS011;2524;54.364;10.072;2023-02-01T02:59:31;17.97;;;4.00;;
5010;SDS011;2524;54.364;10.072;2023-02-01T03:02:17;24.00;;;5.00;;
5010;SDS011;2524;54.364;10.072;2023-02-01T03:05:02;19.77;;;4.30;;
5010;SDS011;2524;54.364;10.072;2023-02-01T03:10:17;18.10;;;4.93;;
5010;SDS011;2524;54.364;10.072;2023-02-01T03:12:46;20.47;;;5.03;;
5010;SDS011;2524;54.364;10.072;2023-02-01T03:15:26;21.63;;;4.80;;
5010;SDS011;2524;54.364;10.072;2023-02-01T03:18:07;18.23;;;4.50;;
5010;SDS011;2524;54.364;10.072;2023-02-01T03:20:44;17.60;;;4.30;;
5010;SDS011;2524;54.364;10.072;2023-02-01T03:23:13;25.00;;;4.77;;
5010;SDS011;2524;54.364;10.072;2023-02-01T03:25:41;18.33;;;4.80;;
5010;SDS011;2524;54.364;10.072;2023-02-01T03:28:08;26.47;;;5.90;;
5010;SDS011;2524;54.364;10.072;2023-02-01T03:30:36;22.73;;;5.60;;
5010;SDS011;2524;54.364;10.072;2023-02-01T03:33:02;21.57;;;5.23;;
5010;SDS011;2524;54.364;10.072;2023-02-01T03:38:30;25.43;;;6.30;;
5010;SDS011;2524;54.364;10.072;2023-02-01T03:41:17;26.63;;;5.50;;
5010;SDS011;2524;54.364;10.072;2023-02-01T03:46:37;22.97;;;5.00;;
5010;SDS011;2524;54.364;10.072;2023-02-01T03:49:08;13.93;;;3.97;;
5010;SDS011;2524;54.364;10.072;2023-02-01T03:51:40;12.37;;;3.57;;
5010;SDS011;2524;54.364;10.072;2023-02-01T03:54:06;8.73;;;2.77;;
5010;SDS011;2524;54.364;10.072;2023-02-01T03:56:36;15.63;;;2.83;;
5010;SDS011;2524;54.364;10.072;2023-02-01T03:59:05;14.30;;;3.53;;
5010;SDS011;2524;54.364;10.072;2023-02-01T04:01:30;14.47;;;4.17;;
5010;SDS011;2524;54.364;10.072;2023-02-01T04:03:57;11.73;;;3.50;;
5010;SDS011;2524;54.364;10.072;2023-02-01T04:06:24;5.90;;;2.60;;
5010;SDS011;2524;54.364;10.072;2023-02-01T04:08:50;14.90;;;3.07;;
5010;SDS011;2524;54.364;10.072;2023-02-01T04:11:16;8.37;;;2.37;;
5010;SDS011;2524;54.364;10.072;2023-02-01T04:13:41;4.70;;;2.00;;
5010;SDS011;2524;54.364;10.072;2023-02-01T04:16:08;7.53;;;2.30;;
5010;SDS011;2524;54.364;10.072;2023-02-01T04:18:33;8.00;;;2.47;;
5010;SDS011;2524;54.364;10.072;2023-02-01T04:21:00;4.50;;;2.03;;
5010;SDS011;2524;54.364;10.072;2023-02-01T04:23:26;4.10;;;2.00;;
5010;SDS011;2524;54.364;10.072;2023-02-01T04:25:52;7.17;;;2.30;;
5010;SDS011;2524;54.364;10.072;2023-02-01T04:28:18;5.27;;;1.63;;
5010;SDS011;2524;54.364;10.072;2023-02-01T04:30:45;6.17;;;2.30;;
5010;SDS011;2524;54.364;10.072;2023-02-01T04:33:11;8.43;;;2.00;;
5010;SDS011;2524;54.364;10.072;2023-02-01T04:35:39;8.27;;;2.60;;
5010;SDS011;2524;54.364;10.072;2023-02-01T04:38:05;7.70;;;2.37;;
5010;SDS011;2524;54.364;10.072;2023-02-01T04:40:31;5.70;;;1.73;;
5010;SDS011;2524;54.364;10.072;2023-02-01T04:42:57;7.17;;;2.87;;
5010;SDS011;2524;54.364;10.072;2023-02-01T04:45:23;13.03;;;3.00;;
5010;SDS011;2524;54.364;10.072;2023-02-01T04:47:48;9.63;;;2.60;;
5010;SDS011;2524;54.364;10.072;2023-02-01T04:50:14;6.10;;;2.27;;
5010;SDS011;2524;54.364;10.072;2023-02-01T04:52:40;7.27;;;1.90;;
5010;SDS011;2524;54.364;10.072;2023-02-01T04:55:06;4.33;;;1.93;;
5010;SDS011;2524;54.364;10.072;2023-02-01T04:57:32;8.87;;;2.33;;
5010;SDS011;2524;54.364;10.072;2023-02-01T04:59:58;4.40;;;1.87;;
5010;SDS011;2524;54.364;10.072;2023-02-01T05:02:23;6.43;;;2.40;;
5010;SDS011;2524;54.364;10.072;2023-02-01T05:04:49;5.90;;;2.30;;
5010;SDS011;2524;54.364;10.072;2023-02-01T05:07:15;5.93;;;2.23;;
5010;SDS011;2524;54.364;10.072;2023-02-01T05:09:41;6.17;;;2.40;;
5010;SDS011;2524;54.364;10.072;2023-02-01T05:12:08;3.93;;;1.80;;
5010;SDS011;2524;54.364;10.072;2023-02-01T05:14:53;6.63;;;2.30;;
5010;SDS011;2524;54.364;10.072;2023-02-01T05:17:18;9.27;;;3.40;;
5010;SDS011;2524;54.364;10.072;2023-02-01T05:19:44;10.30;;;2.40;;
5010;SDS011;2524;54.364;10.072;2023-02-01T05:22:10;7.17;;;2.50;;
5010;SDS011;2524;54.364;10.072;2023-02-01T05:24:35;6.07;;;2.43;;
5010;SDS011;2524;54.364;10.072;2023-02-01T05:27:01;10.03;;;2.50;;
5010;SDS011;2524;54.364;10.072;2023-02-01T05:29:26;11.07;;;2.63;;
5010;SDS011;2524;54.364;10.072;2023-02-01T05:31:52;9.10;;;2.60;;
5010;SDS011;2524;54.364;10.072;2023-02-01T05:34:17;14.63;;;3.03;;
5010;SDS011;2524;54.364;10.072;2023-02-01T05:36:43;7.83;;;2.00;;
5010;SDS011;2524;54.364;10.072;2023-02-01T05:39:09;6.67;;;1.70;;
5010;SDS011;2524;54.364;10.072;2023-02-01T05:41:35;6.87;;;2.03;;
5010;SDS011;2524;54.364;10.072;2023-02-01T05:44:01;13.93;;;3.23;;
5010;SDS011;2524;54.364;10.072;2023-02-01T05:46:27;10.10;;;2.60;;
5010;SDS011;2524;54.364;10.072;2023-02-01T05:48:53;17.63;;;3.70;;
5010;SDS011;2524;54.364;10.072;2023-02-01T05:51:19;8.00;;;2.30;;
5010;SDS011;2524;54.364;10.072;2023-02-01T05:53:44;14.43;;;2.97;;
5010;SDS011;2524;54.364;10.072;2023-02-01T05:56:10;8.53;;;2.03;;
5010;SDS011;2524;54.364;10.072;2023-02-01T05:58:35;9.53;;;2.53;;
5010;SDS011;2524;54.364;10.072;2023-02-01T06:01:03;6.13;;;2.20;;
5010;SDS011;2524;54.364;10.072;2023-02-01T06:03:29;8.30;;;2.37;;
5010;SDS011;2524;54.364;10.072;2023-02-01T06:05:54;7.30;;;2.10;;
5010;SDS011;2524;54.364;10.072;2023-02-01T06:08:20;6.93;;;2.27;;
5010;SDS011;2524;54.364;10.072;2023-02-01T06:10:50;2.80;;;2.10;;
5010;SDS011;2524;54.364;10.072;2023-02-01T06:13:56;14.43;;;2.30;;
5010;SDS011;2524;54.364;10.072;2023-02-01T06:16:22;6.23;;;2.43;;
5010;SDS011;2524;54.364;10.072;2023-02-01T06:18:57;6.10;;;2.10;;
5010;SDS011;2524;54.364;10.072;2023-02-01T06:21:30;12.63;;;3.23;;
5010;SDS011;2524;54.364;10.072;2023-02-01T06:23:56;6.23;;;2.17;;
5010;SDS011;2524;54.364;10.072;2023-02-01T06:26:23;13.83;;;2.60;;
5010;SDS011;2524;54.364;10.072;2023-02-01T06:29:19;6.87;;;2.30;;
5010;SDS011;2524;54.364;10.072;2023-02-01T06:31:57;11.00;;;2.67;;
5010;SDS011;2524;54.364;10.072;2023-02-01T06:34:23;12.93;;;3.70;;
5010;SDS011;2524;54.364;10.072;2023-02-01T06:36:48;10.33;;;2.30;;
5010;SDS011;2524;54.364;10.072;2023-02-01T06:39:16;4.63;;;2.00;;
5010;SDS011;2524;54.364;10.072;2023-02-01T06:41:42;3.73;;;1.63;;
5010;SDS011;2524;54.364;10.072;2023-02-01T06:44:24;11.00;;;2.80;;
5010;SDS011;2524;54.364;10.072;2023-02-01T06:46:49;4.97;;;1.93;;
5010;SDS011;2524;54.364;10.072;2023-02-01T06:49:22;4.47;;;1.73;;
5010;SDS011;2524;54.364;10.072;2023-02-01T06:51:48;3.90;;;2.10;;
5010;SDS011;2524;54.364;10.072;2023-02-01T06:54:14;12.83;;;3.03;;
5010;SDS011;2524;54.364;10.072;2023-02-01T06:56:39;7.30;;;2.40;;
5010;SDS011;2524;54.364;10.072;2023-02-01T06:59:06;7.00;;;3.13;;
5010;SDS011;2524;54.364;10.072;2023-02-01T07:01:32;17.17;;;3.13;;
5010;SDS011;2524;54.364;10.072;2023-02-01T07:03:58;6.70;;;2.60;;
5010;SDS011;2524;54.364;10.072;2023-02-01T07:06:23;11.70;;;2.90;;
5010;SDS011;2524;54.364;10.072;2023-02-01T07:08:49;10.63;;;3.07;;
5010;SDS011;2524;54.364;10.072;2023-02-01T07:11:15;10.43;;;3.90;;
5010;SDS011;2524;54.364;10.072;2023-02-01T07:13:42;6.07;;;2.73;;
5010;SDS011;2524;54.364;10.072;2023-02-01T07:16:12;18.47;;;3.43;;
5010;SDS011;2524;54.364;10.072;2023-02-01T07:18:39;15.87;;;3.50;;
5010;SDS011;2524;54.364;10.072;2023-02-01T07:21:05;10.73;;;3.23;;
5010;SDS011;2524;54.364;10.072;2023-02-01T07:23:33;18.83;;;3.77;;
5010;SDS011;2524;54.364;10.072;2023-02-01T07:26:01;15.77;;;2.93;;
5010;SDS011;2524;54.364;10.072;2023-02-01T07:28:31;16.70;;;4.10;;
5010;SDS011;2524;54.364;10.072;2023-02-01T07:31:03;20.43;;;4.80;;
5010;SDS011;2524;54.364;10.072;2023-02-01T07:33:41;12.47;;;3.60;;
5010;SDS011;2524;54.364;10.072;2023-02-01T07:36:08;15.27;;;4.30;;
5010;SDS011;2524;54.364;10.072;2023-02-01T07:38:40;11.20;;;3.87;;
5010;SDS011;2524;54.364;10.072;2023-02-01T07:41:06;10.23;;;3.30;;
5010;SDS011;2524;54.364;10.072;2023-02-01T07:43:32;29.47;;;4.60;;
5010;SDS011;2524;54.364;10.072;2023-02-01T07:45:59;29.93;;;5.30;;
5010;SDS011;2524;54.364;10.072;2023-02-01T07:48:25;9.43;;;3.43;;
5010;SDS011;2524;54.364;10.072;2023-02-01T07:51:24;19.37;;;4.90;;
5010;SDS011;2524;54.364;10.072;2023-02-01T07:53:44;9.87;;;3.00;;
5010;SDS011;2524;54.364;10.072;2023-02-01T07:56:11;14.67;;;3.47;;
5010;SDS011;2524;54.364;10.072;2023-02-01T07:58:38;20.93;;;4.40;;
5010;SDS011;2524;54.364;10.072;2023-02-01T08:01:04;18.70;;;4.27;;
5010;SDS011;2524;54.364;10.072;2023-02-01T08:03:46;19.30;;;4.07;;
5010;SDS011;2524;54.364;10.072;2023-02-01T08:06:18;18.80;;;4.30;;
5010;SDS011;2524;54.364;10.072;2023-02-01T08:08:45;17.20;;;3.90;;
5010;SDS011;2524;54.364;10.072;2023-02-01T08:11:12;23.33;;;5.07;;
5010;SDS011;2524;54.364;10.072;2023-02-01T08:13:38;13.70;;;4.50;;
5010;SDS011;2524;54.364;10.072;2023-02-01T08:16:05;12.30;;;3.30;;
5010;SDS011;2524;54.364;10.072;2023-02-01T08:18:33;15.67;;;3.40;;
5010;SDS011;2524;54.364;10.072;2023-02-01T08:21:05;13.40;;;3.27;;
5010;SDS011;2524;54.364;10.072;2023-02-01T08:23:42;17.53;;;4.53;;
5010;SDS011;2524;54.364;10.072;2023-02-01T08:26:12;16.57;;;3.60;;
5010;SDS011;2524;54.364;10.072;2023-02-01T08:28:44;19.33;;;4.07;;
5010;SDS011;2524;54.364;10.072;2023-02-01T08:31:13;11.30;;;3.50;;
5010;SDS011;2524;54.364;10.072;2023-02-01T08:33:41;13.13;;;2.90;;
5010;SDS011;2524;54.364;10.072;2023-02-01T08:36:08;21.43;;;5.10;;
5010;SDS011;2524;54.364;10.072;2023-02-01T08:38:35;7.40;;;2.90;;
5010;SDS011;2524;54.364;10.072;2023-02-01T08:41:09;12.70;;;3.23;;
5010;SDS011;2524;54.364;10.072;2023-02-01T08:43:37;12.57;;;3.47;;
5010;SDS011;2524;54.364;10.072;2023-02-01T08:46:04;8.20;;;2.40;;
5010;SDS011;2524;54.364;10.072;2023-02-01T08:48:30;14.33;;;3.10;;
5010;SDS011;2524;54.364;10.072;2023-02-01T08:50:57;6.40;;;2.80;;
5010;SDS011;2524;54.364;10.072;2023-02-01T08:53:25;11.73;;;3.13;;
5010;SDS011;2524;54.364;10.072;2023-02-01T08:55:51;9.07;;;3.10;;
5010;SDS011;2524;54.364;10.072;2023-02-01T08:58:18;11.27;;;3.43;;
5010;SDS011;2524;54.364;10.072;2023-02-01T09:00:44;12.70;;;2.90;;
5010;SDS011;2524;54.364;10.072;2023-02-01T09:03:10;17.40;;;4.50;;
5010;SDS011;2524;54.364;10.072;2023-02-01T09:05:37;8.70;;;2.97;;
5010;SDS011;2524;54.364;10.072;2023-02-01T09:08:03;10.50;;;3.03;;
5010;SDS011;2524;54.364;10.072;2023-02-01T09:10:29;12.80;;;3.50;;
5010;SDS011;2524;54.364;10.072;2023-02-01T09:12:55;21.13;;;3.27;;
5010;SDS011;2524;54.364;10.072;2023-02-01T09:15:20;12.47;;;3.47;;
5010;SDS011;2524;54.364;10.072;2023-02-01T09:17:46;10.30;;;3.37;;
5010;SDS011;2524;54.364;10.072;2023-02-01T09:20:12;17.03;;;4.00;;
5010;SDS011;2524;54.364;10.072;2023-02-01T09:22:38;16.33;;;4.20;;
5010;SDS011;2524;54.364;10.072;2023-02-01T09:25:04;13.60;;;3.97;;
5010;SDS011;2524;54.364;10.072;2023-02-01T09:27:30;10.33;;;3.77;;
5010;SDS011;2524;54.364;10.072;2023-02-01T09:29:55;14.03;;;4.10;;
5010;SDS011;2524;54.364;10.072;2023-02-01T09:32:21;11.40;;;3.10;;
5010;SDS011;2524;54.364;10.072;2023-02-01T09:34:51;21.57;;;4.50;;
5010;SDS011;2524;54.364;10.072;2023-02-01T09:37:17;18.63;;;3.93;;
5010;SDS011;2524;54.364;10.072;2023-02-01T09:39:43;19.00;;;3.90;;
5010;SDS011;2524;54.364;10.072;2023-02-01T09:42:15;11.97;;;3.40;;
5010;SDS011;2524;54.364;10.072;2023-02-01T09:48:15;8.13;;;2.80;;
5010;SDS011;2524;54.364;10.072;2023-02-01T09:50:46;30.43;;;5.60;;
5010;SDS011;2524;54.364;10.072;2023-02-01T09:53:18;16.70;;;4.03;;
5010;SDS011;2524;54.364;10.072;2023-02-01T09:55:50;19.57;;;4.33;;
5010;SDS011;2524;54.364;10.072;2023-02-01T09:58:24;22.17;;;4.30;;
5010;SDS011;2524;54.364;10.072;2023-02-01T10:00:52;20.17;;;4.67;;
5010;SDS011;2524;54.364;10.072;2023-02-01T10:03:20;23.97;;;4.70;;
5010;SDS011;2524;54.364;10.072;2023-02-01T10:08:55;16.07;;;4.10;;
5010;SDS011;2524;54.364;10.072;2023-02-01T10:17:00;14.93;;;3.97;;
5010;SDS011;2524;54.364;10.072;2023-02-01T10:22:00;16.00;;;3.50;;
5010;SDS011;2524;54.364;10.072;2023-02-01T10:24:39;26.33;;;5.10;;
5010;SDS011;2524;54.364;10.072;2023-02-01T10:27:19;17.33;;;3.97;;
5010;SDS011;2524;54.364;10.072;2023-02-01T10:29:48;23.13;;;4.13;;
5010;SDS011;2524;54.364;10.072;2023-02-01T10:32:20;21.70;;;4.40;;
5010;SDS011;2524;54.364;10.072;2023-02-01T10:35:10;12.33;;;3.50;;
5010;SDS011;2524;54.364;10.072;2023-02-01T10:37:40;16.50;;;4.40;;
5010;SDS011;2524;54.364;10.072;2023-02-01T10:42:46;21.60;;;4.63;;
5010;SDS011;2524;54.364;10.072;2023-02-01T10:45:13;13.70;;;3.60;;
5010;SDS011;2524;54.364;10.072;2023-02-01T10:47:43;12.53;;;3.50;;
5010;SDS011;2524;54.364;10.072;2023-02-01T10:50:33;17.27;;;3.73;;
5010;SDS011;2524;54.364;10.072;2023-02-01T10:53:00;32.83;;;5.37;;
5010;SDS011;2524;54.364;10.072;2023-02-01T10:58:16;18.50;;;4.27;;
5010;SDS011;2524;54.364;10.072;2023-02-01T11:00:45;18.57;;;5.00;;
5010;SDS011;2524;54.364;10.072;2023-02-01T11:05:56;20.63;;;5.43;;
5010;SDS011;2524;54.364;10.072;2023-02-01T11:08:22;21.33;;;4.20;;
5010;SDS011;2524;54.364;10.072;2023-02-01T11:10:49;13.33;;;3.30;;
5010;SDS011;2524;54.364;10.072;2023-02-01T11:13:33;12.17;;;3.23;;
5010;SDS011;2524;54.364;10.072;2023-02-01T11:16:04;9.13;;;2.40;;
5010;SDS011;2524;54.364;10.072;2023-02-01T11:18:32;7.20;;;2.20;;
5010;SDS011;2524;54.364;10.072;2023-02-01T11:21:02;8.37;;;2.90;;
5010;SDS011;2524;54.364;10.072;2023-02-01T11:23:29;15.97;;;4.30;;
5010;SDS011;2524;54.364;10.072;2023-02-01T11:26:07;15.33;;;3.97;;
5010;SDS011;2524;54.364;10.072;2023-02-01T11:28:37;18.00;;;3.90;;
5010;SDS011;2524;54.364;10.072;2023-02-01T11:31:07;9.53;;;3.07;;
5010;SDS011;2524;54.364;10.072;2023-02-01T11:33:37;10.23;;;3.50;;
5010;SDS011;2524;54.364;10.072;2023-02-01T11:36:10;22.87;;;4.93;;
5010;SDS011;2524;54.364;10.072;2023-02-01T11:38:47;17.40;;;3.57;;
5010;SDS011;2524;54.364;10.072;2023-02-01T11:41:33;12.83;;;3.33;;
5010;SDS011;2524;54.364;10.072;2023-02-01T11:44:00;17.93;;;4.10;;
5010;SDS011;2524;54.364;10.072;2023-02-01T11:46:40;14.60;;;3.83;;
5010;SDS011;2524;54.364;10.072;2023-02-01T11:49:14;16.97;;;3.93;;
5010;SDS011;2524;54.364;10.072;2023-02-01T11:52:07;12.23;;;3.80;;
5010;SDS011;2524;54.364;10.072;2023-02-01T11:57:13;12.47;;;3.50;;
5010;SDS011;2524;54.364;10.072;2023-02-01T12:00:05;17.37;;;3.00;;
5010;SDS011;2524;54.364;10.072;2023-02-01T12:21:29;4.00;;;1.40;;
5010;SDS011;2524;54.364;10.072;2023-02-01T12:24:25;3.10;;;1.70;;
5010;SDS011;2524;54.364;10.072;2023-02-01T12:27:10;1.17;;;1.07;;
5010;SDS011;2524;54.364;10.072;2023-02-01T12:44:11;6.60;;;2.07;;
5010;SDS011;2524;54.364;10.072;2023-02-01T12:46:46;7.37;;;2.23;;
5010;SDS011;2524;54.364;10.072;2023-02-01T12:49:18;16.53;;;2.70;;
5010;SDS011;2524;54.364;10.072;2023-02-01T12:51:55;11.87;;;2.93;;
5010;SDS011;2524;54.364;10.072;2023-02-01T12:56:55;13.90;;;3.60;;
5010;SDS011;2524;54.364;10.072;2023-02-01T13:02:01;10.17;;;2.37;;
5010;SDS011;2524;54.364;10.072;2023-02-01T13:04:44;10.27;;;3.07;;
5010;SDS011;2524;54.364;10.072;2023-02-01T13:07:38;10.27;;;3.03;;
5010;SDS011;2524;54.364;10.072;2023-02-01T13:12:54;7.53;;;2.40;;
5010;SDS011;2524;54.364;10.072;2023-02-01T13:15:27;11.43;;;2.80;;
5010;SDS011;2524;54.364;10.072;2023-02-01T13:17:58;7.03;;;3.03;;
5010;SDS011;2524;54.364;10.072;2023-02-01T13:23:16;6.27;;;2.43;;
5010;SDS011;2524;54.364;10.072;2023-02-01T13:25:50;2.67;;;1.70;;
5010;SDS011;2524;54.364;10.072;2023-02-01T13:28:27;2.20;;;1.50;;
5010;SDS011;2524;54.364;10.072;2023-02-01T13:33:41;4.50;;;1.80;;
5010;SDS011;2524;54.364;10.072;2023-02-01T13:36:41;5.37;;;1.70;;
5010;SDS011;2524;54.364;10.072;2023-02-01T13:39:39;4.63;;;1.83;;
5010;SDS011;2524;54.364;10.072;2023-02-01T13:44:54;2.90;;;1.83;;
5010;SDS011;2524;54.364;10.072;2023-02-01T13:47:27;2.93;;;1.53;;
5010;SDS011;2524;54.364;10.072;2023-02-01T13:50:02;3.60;;;1.87;;
5010;SDS011;2524;54.364;10.072;2023-02-01T13:52:45;6.57;;;1.47;;
5010;SDS011;2524;54.364;10.072;2023-02-01T13:57:48;9.73;;;2.70;;
5010;SDS011;2524;54.364;10.072;2023-02-01T14:00:28;6.93;;;2.37;;
5010;SDS011;2524;54.364;10.072;2023-02-01T14:13:28;9.17;;;2.70;;
5010;SDS011;2524;54.364;10.072;2023-02-01T14:16:10;8.43;;;2.80;;
5010;SDS011;2524;54.364;10.072;2023-02-01T14:23:55;11.83;;;3.90;;
5010;SDS011;2524;54.364;10.072;2023-02-01T14:26:48;17.27;;;4.00;;
5010;SDS011;2524;54.364;10.072;2023-02-01T14:32:03;16.60;;;3.30;;
5010;SDS011;2524;54.364;10.072;2023-02-01T14:37:23;15.77;;;3.73;;
5010;SDS011;2524;54.364;10.072;2023-02-01T14:39:55;14.17;;;3.07;;
5010;SDS011;2524;54.364;10.072;2023-02-01T14:47:48;17.40;;;4.00;;
5010;SDS011;2524;54.364;10.072;2023-02-01T15:01:18;10.70;;;3.13;;
5010;SDS011;2524;54.364;10.072;2023-02-01T15:03:50;13.30;;;3.20;;
5010;SDS011;2524;54.364;10.072;2023-02-01T15:06:37;10.63;;;3.60;;
5010;SDS011;2524;54.364;10.072;2023-02-01T15:09:21;12.10;;;3.53;;
5010;SDS011;2524;54.364;10.072;2023-02-01T15:17:48;18.80;;;3.67;;
5010;SDS011;2524;54.364;10.072;2023-02-01T15:20:31;28.40;;;5.50;;
5010;SDS011;2524;54.364;10.072;2023-02-01T15:23:02;20.13;;;4.40;;
5010;SDS011;2524;54.364;10.072;2023-02-01T15:25:31;11.93;;;3.50;;
5010;SDS011;2524;54.364;10.072;2023-02-01T15:28:02;22.27;;;4.60;;
5010;SDS011;2524;54.364;10.072;2023-02-01T15:30:29;17.90;;;4.40;;
5010;SDS011;2524;54.364;10.072;2023-02-01T15:33:06;19.37;;;4.23;;
5010;SDS011;2524;54.364;10.072;2023-02-01T15:35:43;22.53;;;5.17;;
5010;SDS011;2524;54.364;10.072;2023-02-01T15:46:45;21.47;;;5.50;;
5010;SDS011;2524;54.364;10.072;2023-02-01T15:49:24;16.07;;;4.60;;
5010;SDS011;2524;54.364;10.072;2023-02-01T15:51:53;21.20;;;4.93;;
5010;SDS011;2524;54.364;10.072;2023-02-01T15:54:41;19.13;;;5.70;;
5010;SDS011;2524;54.364;10.072;2023-02-01T15:57:11;22.47;;;5.97;;
5010;SDS011;2524;54.364;10.072;2023-02-01T15:59:41;19.53;;;5.60;;
5010;SDS011;2524;54.364;10.072;2023-02-01T16:08:03;26.90;;;5.23;;
5010;SDS011;2524;54.364;10.072;2023-02-01T16:10:38;26.80;;;5.63;;
5010;SDS011;2524;54.364;10.072;2023-02-01T16:13:06;14.97;;;4.10;;
5010;SDS011;2524;54.364;10.072;2023-02-01T16:15:32;27.00;;;5.20;;
5010;SDS011;2524;54.364;10.072;2023-02-01T16:17:57;26.40;;;5.27;;
5010;SDS011;2524;54.364;10.072;2023-02-01T16:20:23;25.43;;;5.73;;
5010;SDS011;2524;54.364;10.072;2023-02-01T16:22:49;20.30;;;4.90;;
5010;SDS011;2524;54.364;10.072;2023-02-01T16:25:14;30.80;;;5.63;;
5010;SDS011;2524;54.364;10.072;2023-02-01T16:27:40;13.03;;;3.70;;
5010;SDS011;2524;54.364;10.072;2023-02-01T16:30:06;23.53;;;5.23;;
5010;SDS011;2524;54.364;10.072;2023-02-01T16:32:34;27.73;;;6.23;;
5010;SDS011;2524;54.364;10.072;2023-02-01T16:35:03;16.33;;;4.60;;
5010;SDS011;2524;54.364;10.072;2023-02-01T16:37:30;11.67;;;3.83;;
5010;SDS011;2524;54.364;10.072;2023-02-01T16:39:58;20.33;;;4.90;;
5010;SDS011;2524;54.364;10.072;2023-02-01T16:42:24;34.47;;;5.80;;
5010;SDS011;2524;54.364;10.072;2023-02-01T16:44:52;27.67;;;5.67;;
5010;SDS011;2524;54.364;10.072;2023-02-01T16:47:19;19.53;;;4.50;;
5010;SDS011;2524;54.364;10.072;2023-02-01T16:49:46;21.83;;;5.33;;
5010;SDS011;2524;54.364;10.072;2023-02-01T16:52:14;17.43;;;4.60;;
5010;SDS011;2524;54.364;10.072;2023-02-01T16:54:45;23.00;;;4.70;;
5010;SDS011;2524;54.364;10.072;2023-02-01T16:57:13;15.63;;;4.30;;
5010;SDS011;2524;54.364;10.072;2023-02-01T16:59:41;15.60;;;4.67;;
5010;SDS011;2524;54.364;10.072;2023-02-01T17:02:12;20.77;;;4.97;;
5010;SDS011;2524;54.364;10.072;2023-02-01T17:04:44;16.00;;;4.40;;
5010;SDS011;2524;54.364;10.072;2023-02-01T17:07:16;37.33;;;6.27;;
5010;SDS011;2524;54.364;10.072;2023-02-01T17:09:43;19.53;;;5.30;;
5010;SDS011;2524;54.364;10.072;2023-02-01T17:12:30;26.33;;;5.17;;
5010;SDS011;2524;54.364;10.072;2023-02-01T17:14:57;30.90;;;5.70;;
5010;SDS011;2524;54.364;10.072;2023-02-01T17:17:25;35.30;;;7.30;;
5010;SDS011;2524;54.364;10.072;2023-02-01T17:19:56;30.03;;;5.93;;
5010;SDS011;2524;54.364;10.072;2023-02-01T17:22:22;19.70;;;5.43;;
5010;SDS011;2524;54.364;10.072;2023-02-01T17:24:48;16.70;;;4.80;;
5010;SDS011;2524;54.364;10.072;2023-02-01T17:27:16;25.27;;;5.10;;
5010;SDS011;2524;54.364;10.072;2023-02-01T17:29:42;19.80;;;5.13;;
5010;SDS011;2524;54.364;10.072;2023-02-01T17:32:18;17.10;;;4.30;;
5010;SDS011;2524;54.364;10.072;2023-02-01T17:34:46;18.00;;;5.43;;
5010;SDS011;2524;54.364;10.072;2023-02-01T17:37:18;22.93;;;5.70;;
5010;SDS011;2524;54.364;10.072;2023-02-01T17:39:49;26.17;;;4.97;;
5010;SDS011;2524;54.364;10.072;2023-02-01T17:42:20;29.93;;;4.97;;
5010;SDS011;2524;54.364;10.072;2023-02-01T17:44:49;24.67;;;4.80;;
5010;SDS011;2524;54.364;10.072;2023-02-01T17:47:26;17.00;;;4.80;;
5010;SDS011;2524;54.364;10.072;2023-02-01T17:49:52;9.00;;;3.20;;
5010;SDS011;2524;54.364;10.072;2023-02-01T17:52:20;24.00;;;5.03;;
5010;SDS011;2524;54.364;10.072;2023-02-01T17:54:47;20.70;;;5.00;;
5010;SDS011;2524;54.364;10.072;2023-02-01T17:57:14;23.67;;;4.50;;